Time;durP1;ratioP1;P1;durP2;ratioP2;P2;SDS_P1;SDS_P2;PMS_P1;PMS_P2;Temp;Humidity;BMP_temperature;BMP_pressure;BME280_temperature;BME280_humidity;BME280_pressure;Samples;Min_cycle;Max_cycle;Signal;HPM_P1;HPM_P2
2023/03/12 05:22:33;;;;;;;1.50;1.40;;;;;;;0.17;100.00;99891.66;5068677;28;20160;-68
2023/03/12 05:24:58;;;;;;;2.35;1.60;;;;;;;0.24;100.00;99890.25;5051088;28;20024;-68
2023/03/12 05:27:24;;;;;;;1.45;1.35;;;;;;;0.31;100.00;99877.53;5067560;28;20041;-68
2023/03/12 05:29:52;;;;;;;1.40;1.30;;;;;;;0.29;100.00;99875.97;5067456;28;20512;-68
2023/03/12 05:32:19;;;;;;;5.07;1.77;;;;;;;0.29;100.00;99882.06;5067232;28;20029;-68
2023/03/12 05:34:45;;;;;;;1.45;1.20;;;;;;;0.36;100.00;99885.88;5067503;28;20055;-67
2023/03/12 05:37:10;;;;;;;2.65;1.80;;;;;;;0.35;100.00;99880.75;5068766;28;20043;-68
2023/03/12 05:39:36;;;;;;;2.88;2.10;;;;;;;0.34;100.00;99877.31;5067376;28;20043;-68
2023/03/12 05:42:04;;;;;;;2.55;2.10;;;;;;;0.37;100.00;99878.84;5067247;28;20063;-67
2023/03/12 05:44:29;;;;;;;2.25;1.98;;;;;;;0.37;100.00;99873.59;5066801;28;20080;-68
2023/03/12 05:46:55;;;;;;;2.92;1.83;;;;;;;0.42;100.00;99871.47;5067197;28;20032;-67
2023/03/12 05:49:23;;;;;;;2.70;1.70;;;;;;;0.37;100.00;99863.13;5067115;28;20056;-68
2023/03/12 05:51:49;;;;;;;1.75;1.65;;;;;;;0.40;100.00;99858.50;5067193;28;20072;-68
2023/03/12 05:54:16;;;;;;;5.70;1.75;;;;;;;0.40;100.00;99853.25;5066737;28;20040;-69
2023/03/12 05:56:42;;;;;;;3.50;1.88;;;;;;;0.43;100.00;99855.63;5068306;28;20037;-68
2023/03/12 05:59:09;;;;;;;2.10;1.77;;;;;;;0.39;100.00;99850.72;5068700;28;20043;-68
2023/03/12 06:01:35;;;;;;;2.03;1.75;;;;;;;0.41;100.00;99856.72;5066843;28;20037;-68
2023/03/12 06:04:03;;;;;;;2.42;1.85;;;;;;;0.37;100.00;99850.03;5066570;28;20064;-69
2023/03/12 06:06:30;;;;;;;3.17;1.70;;;;;;;0.39;100.00;99848.09;5066745;28;20449;-68
2023/03/12 06:08:56;;;;;;;1.73;1.63;;;;;;;0.41;100.00;99846.22;5066750;28;20036;-68
2023/03/12 06:11:22;;;;;;;4.18;1.90;;;;;;;0.45;100.00;99845.03;5068112;28;20028;-69
2023/03/12 06:13:47;;;;;;;2.88;1.98;;;;;;;0.52;100.00;99849.69;5066384;28;20512;-68
2023/03/12 06:16:24;;;;;;;4.10;1.48;;;;;;;0.57;100.00;99845.84;5066607;28;20405;-68
2023/03/12 06:19:00;;;;;;;3.75;2.35;;;;;;;0.59;100.00;99850.06;5067911;28;20032;-67
2023/03/12 06:21:28;;;;;;;1.98;1.55;;;;;;;0.64;100.00;99855.75;5066287;28;20132;-68
2023/03/12 06:23:54;;;;;;;2.22;1.75;;;;;;;0.69;100.00;99856.22;5065947;28;20453;-68
2023/03/12 06:26:30;;;;;;;2.17;1.90;;;;;;;0.69;100.00;99837.88;5066271;28;20037;-68
2023/03/12 06:28:56;;;;;;;3.55;2.13;;;;;;;0.73;100.00;99841.94;5067618;28;20099;-68
2023/03/12 06:31:22;;;;;;;3.40;1.70;;;;;;;0.75;100.00;99847.06;5067651;28;20036;-68
2023/03/12 06:33:48;;;;;;;1.40;1.30;;;;;;;0.79;100.00;99846.69;5054759;28;20037;-68
2023/03/12 06:36:14;;;;;;;2.08;1.30;;;;;;;0.86;100.00;99851.47;5054273;28;20079;-69
2023/03/12 06:38:40;;;;;;;2.40;1.80;;;;;;;0.92;100.00;99854.44;5052991;28;20426;-67
2023/03/12 06:41:11;;;;;;;4.05;2.03;;;;;;;0.95;100.00;99859.44;5054020;28;20398;-67
2023/03/12 06:43:38;;;;;;;2.47;1.65;;;;;;;0.96;100.00;99860.25;5054185;28;20055;-66
2023/03/12 06:46:05;;;;;;;2.47;1.90;;;;;;;1.00;100.00;99861.69;5054474;28;20112;-59
2023/03/12 06:48:32;;;;;;;2.13;1.83;;;;;;;1.01;100.00;99855.50;5054484;28;20041;-49
2023/03/12 06:50:58;;;;;;;3.47;1.88;;;;;;;1.06;100.00;99854.19;5054339;28;20094;-49
2023/03/12 06:53:24;;;;;;;2.78;1.75;;;;;;;1.08;100.00;99849.63;5054023;28;20116;-50
2023/03/12 06:55:50;;;;;;;3.00;1.58;;;;;;;1.14;100.00;99852.72;5054241;28;20490;-48
2023/03/12 06:58:17;;;;;;;7.18;1.67;;;;;;;1.22;100.00;99848.53;5054374;28;20119;-59
2023/03/12 07:00:42;;;;;;;1.60;1.50;;;;;;;1.28;100.00;99847.19;5054090;28;20069;-56
2023/03/12 07:03:08;;;;;;;2.88;2.03;;;;;;;1.39;100.00;99857.66;5053950;28;20060;-60
2023/03/12 07:05:33;;;;;;;2.90;1.55;;;;;;;1.47;100.00;99870.16;5053931;28;20448;-57
2023/03/12 07:07:59;;;;;;;2.80;2.00;;;;;;;1.52;100.00;99868.84;5054091;28;20041;-63
2023/03/12 07:10:26;;;;;;;2.67;1.98;;;;;;;1.55;100.00;99862.50;5054018;28;20045;-59
2023/03/12 07:12:52;;;;;;;2.92;2.30;;;;;;;1.63;100.00;99860.09;5053916;28;20455;-59
2023/03/12 07:15:17;;;;;;;2.05;1.65;;;;;;;1.69;100.00;99861.38;5053882;28;20049;-57
2023/03/12 07:17:43;;;;;;;2.05;1.60;;;;;;;1.75;100.00;99869.56;5053972;28;20044;-63
2023/03/12 07:20:09;;;;;;;1.77;1.67;;;;;;;1.78;100.00;99869.34;5054248;28;20481;-59
2023/03/12 07:22:34;;;;;;;6.22;2.33;;;;;;;1.74;100.00;99881.03;5073506;28;20052;-57
2023/03/12 07:25:00;;;;;;;2.30;1.80;;;;;;;1.72;100.00;99880.34;5073704;28;20033;-56
2023/03/12 07:27:25;;;;;;;2.40;1.95;;;;;;;1.66;100.00;99882.63;5073627;28;20051;-61
2023/03/12 07:29:51;;;;;;;3.55;1.60;;;;;;;1.72;100.00;99887.41;5073682;28;20075;-58
2023/03/12 07:32:17;;;;;;;4.90;1.90;;;;;;;1.78;100.00;99900.84;5073422;28;20044;-57
2023/03/12 07:34:43;;;;;;;2.75;1.70;;;;;;;1.76;100.00;99894.91;5073506;28;20033;-59
2023/03/12 07:37:09;;;;;;;3.30;1.63;;;;;;;1.80;100.00;99893.69;5073398;28;20047;-60
2023/03/12 07:39:34;;;;;;;4.07;1.67;;;;;;;1.81;100.00;99890.09;5073809;28;20032;-57
2023/03/12 07:42:00;;;;;;;2.28;1.60;;;;;;;1.86;100.00;99887.09;5073312;28;20081;-62
2023/03/12 07:44:25;;;;;;;5.80;4.47;;;;;;;1.86;100.00;99895.81;5054110;28;20033;-62
2023/03/12 07:46:52;;;;;;;2.97;2.40;;;;;;;1.88;100.00;99896.50;5073318;28;20044;-57
2023/03/12 07:49:18;;;;;;;6.18;3.72;;;;;;;1.87;100.00;99889.59;5073350;28;20055;-59
2023/03/12 07:51:44;;;;;;;3.83;3.10;;;;;;;1.87;100.00;99894.84;5072998;28;20044;-62
2023/03/12 07:54:09;;;;;;;4.18;2.83;;;;;;;1.88;100.00;99895.66;5072967;28;20026;-58
2023/03/12 07:56:35;;;;;;;2.47;1.90;;;;;;;1.87;100.00;99889.59;5073011;28;20036;-61
2023/03/12 07:59:00;;;;;;;2.78;2.45;;;;;;;1.89;100.00;99884.19;5073095;28;20086;-60
2023/03/12 08:01:30;;;;;;;4.20;2.88;;;;;;;1.83;100.00;99885.56;5072918;28;20101;-59
2023/03/12 08:03:57;;;;;;;3.75;2.13;;;;;;;1.87;100.00;99889.59;5072659;28;20697;-58
2023/03/12 08:06:23;;;;;;;4.17;3.03;;;;;;;1.88;100.00;99880.75;5072739;28;20044;-60
2023/03/12 08:08:49;;;;;;;4.07;3.00;;;;;;;2.03;100.00;99894.44;5073070;28;20355;-62
2023/03/12 08:11:14;;;;;;;3.50;2.15;;;;;;;2.03;100.00;99890.97;5072717;28;20032;-63
2023/03/12 08:13:40;;;;;;;2.80;1.92;;;;;;;2.00;100.00;99905.16;5072401;28;20033;-59
2023/03/12 08:16:05;;;;;;;3.42;2.20;;;;;;;1.90;100.00;99905.09;5072672;28;20055;-60
2023/03/12 08:18:31;;;;;;;4.60;2.22;;;;;;;1.90;100.00;99913.00;5072639;28;20039;-61
2023/03/12 08:20:56;;;;;;;4.38;2.50;;;;;;;1.94;100.00;99910.09;5072530;28;20120;-61
2023/03/12 08:23:22;;;;;;;4.80;2.38;;;;;;;1.91;100.00;99919.06;5072304;28;20040;-59
2023/03/12 08:25:49;;;;;;;6.50;2.58;;;;;;;1.97;100.00;99920.38;5072374;28;20043;-60
2023/03/12 08:28:16;;;;;;;3.05;2.45;;;;;;;2.06;100.00;99922.22;5072521;28;20043;-62
2023/03/12 08:30:49;;;;;;;2.78;1.92;;;;;;;2.06;100.00;99919.59;5072415;28;20539;-61
2023/03/12 08:33:15;;;;;;;4.20;2.72;;;;;;;2.06;100.00;99915.19;5072192;28;20045;-58
2023/03/12 08:35:40;;;;;;;3.17;2.10;;;;;;;2.06;100.00;99927.47;5072375;28;20102;-59
2023/03/12 08:38:07;;;;;;;3.92;2.33;;;;;;;2.11;100.00;99907.75;5054637;28;20043;-61
2023/03/12 08:40:32;;;;;;;2.88;2.25;;;;;;;2.13;100.00;99933.91;5072335;28;20082;-61
2023/03/12 08:42:57;;;;;;;4.03;2.60;;;;;;;2.13;100.00;99905.00;5071968;28;20502;-59
2023/03/12 08:45:23;;;;;;;3.33;2.33;;;;;;;2.16;100.00;99928.41;5072140;28;20044;-59
2023/03/12 08:47:49;;;;;;;5.25;2.13;;;;;;;2.05;100.00;99899.53;5073750;28;20071;-59
2023/03/12 08:50:15;;;;;;;4.78;2.90;;;;;;;2.21;100.00;99931.47;5067957;28;20036;-62
2023/03/12 08:52:42;;;;;;;3.85;2.53;;;;;;;2.18;100.00;99906.28;5068328;28;20401;-59
2023/03/12 08:55:09;;;;;;;7.53;2.83;;;;;;;2.18;100.00;99929.09;5071765;28;20040;-63
2023/03/12 08:57:34;;;;;;;2.53;1.83;;;;;;;2.18;100.00;99922.03;5072258;28;20402;-60
2023/03/12 08:59:59;;;;;;;2.47;2.13;;;;;;;2.13;100.00;99908.44;5072187;28;20032;-62
2023/03/12 09:02:25;;;;;;;3.22;2.08;;;;;;;2.23;100.00;99931.34;5071775;28;20466;-59
2023/03/12 09:04:50;;;;;;;3.50;2.78;;;;;;;2.26;100.00;99918.78;5072194;28;20032;-59
2023/03/12 09:07:17;;;;;;;2.92;2.45;;;;;;;2.30;100.00;99922.00;5071956;28;20431;-61
2023/03/12 09:09:43;;;;;;;3.85;2.88;;;;;;;2.32;100.00;99930.56;5071976;28;20108;-58
2023/03/12 09:12:10;;;;;;;5.32;3.33;;;;;;;2.33;100.00;99919.09;5071768;28;20094;-62
2023/03/12 09:14:35;;;;;;;5.18;3.30;;;;;;;2.37;100.00;99917.88;5071701;28;20032;-59
2023/03/12 09:17:01;;;;;;;4.15;3.17;;;;;;;2.35;100.00;99904.03;5071816;28;20512;-60
2023/03/12 09:19:27;;;;;;;5.38;3.05;;;;;;;2.41;100.00;99928.03;5071832;28;20033;-58
2023/03/12 09:21:52;;;;;;;5.78;3.28;;;;;;;2.52;100.00;99923.63;5071796;28;20043;-66
2023/03/12 09:24:18;;;;;;;7.38;3.35;;;;;;;2.60;100.00;99926.44;5071453;28;20074;-60
2023/03/12 09:26:43;;;;;;;3.20;2.38;;;;;;;2.53;100.00;99914.78;5071794;28;20123;-59
2023/03/12 09:29:09;;;;;;;4.55;2.83;;;;;;;2.68;100.00;99926.66;5071847;28;20052;-61
2023/03/12 09:31:35;;;;;;;4.55;3.33;;;;;;;2.76;100.00;99933.88;5071793;28;20043;-59
2023/03/12 09:34:01;;;;;;;3.33;2.28;;;;;;;2.77;100.00;99931.13;5071391;28;20032;-60
2023/03/12 09:36:27;;;;;;;3.88;2.95;;;;;;;2.76;100.00;99912.84;5071671;28;20033;-57
2023/03/12 09:38:53;;;;;;;5.10;3.55;;;;;;;2.82;100.00;99922.84;5071632;28;20037;-59
2023/03/12 09:41:24;;;;;;;7.75;3.15;;;;;;;2.93;100.00;99935.88;5071720;28;20037;-61
2023/03/12 09:44:06;;;;;;;3.22;2.85;;;;;;;2.97;100.00;99935.50;5054689;28;20402;-61
2023/03/12 09:46:43;;;;;;;8.00;2.67;;;;;;;3.04;100.00;99932.34;5051573;28;20033;-58
2023/03/12 09:49:25;;;;;;;4.75;2.55;;;;;;;3.11;100.00;99930.84;5051612;28;20041;-63
2023/03/12 09:51:55;;;;;;;3.45;2.38;;;;;;;3.24;100.00;99928.81;5051532;28;20037;-59
2023/03/12 09:54:36;;;;;;;5.65;3.10;;;;;;;3.24;100.00;99926.19;5051133;28;20144;-60
2023/03/12 09:57:07;;;;;;;3.80;3.00;;;;;;;3.32;100.00;99936.88;5051557;28;20082;-59
2023/03/12 09:59:35;;;;;;;5.35;2.67;;;;;;;3.53;100.00;99935.00;5051396;28;20032;-60
2023/03/12 10:02:11;;;;;;;4.68;2.53;;;;;;;3.59;100.00;99930.16;5033665;28;20037;-59
2023/03/12 10:04:45;;;;;;;4.68;3.15;;;;;;;3.75;100.00;99946.25;5051239;28;20044;-60
2023/03/12 10:07:19;;;;;;;3.88;2.88;;;;;;;3.89;100.00;99937.94;5051913;28;20469;-60
2023/03/12 10:10:02;;;;;;;3.85;2.92;;;;;;;4.06;100.00;99947.81;5055171;28;20496;-60
2023/03/12 10:12:52;;;;;;;6.38;2.83;;;;;;;4.17;100.00;99945.97;5054771;28;20033;-59
2023/03/12 10:15:39;;;;;;;8.98;3.50;;;;;;;4.32;100.00;99952.53;5054810;28;20098;-61
2023/03/12 10:18:26;;;;;;;3.83;3.00;;;;;;;4.48;100.00;99952.75;5055173;28;20508;-61
2023/03/12 10:21:07;;;;;;;5.97;3.65;;;;;;;4.63;100.00;99956.66;5054812;28;20037;-59
2023/03/12 10:23:38;;;;;;;4.45;2.92;;;;;;;4.84;100.00;99952.97;5054664;28;20067;-61
2023/03/12 10:26:14;;;;;;;4.00;3.35;;;;;;;4.92;100.00;99961.00;5054781;28;20033;-60
2023/03/12 10:28:47;;;;;;;3.45;3.13;;;;;;;5.11;100.00;99955.66;5054909;28;20036;-63
2023/03/12 10:31:29;;;;;;;5.85;3.42;;;;;;;5.32;100.00;99942.22;5054657;28;20133;-63
2023/03/12 10:33:58;;;;;;;4.32;3.17;;;;;;;5.59;100.00;99941.34;5054471;28;20119;-60
2023/03/12 10:36:38;;;;;;;4.13;3.30;;;;;;;5.91;100.00;99938.25;5054596;28;20478;-63
2023/03/12 10:39:12;;;;;;;6.10;3.45;;;;;;;6.34;100.00;99943.75;5054730;28;20174;-59
2023/03/12 10:41:38;;;;;;;7.07;3.60;;;;;;;6.79;100.00;99952.38;5054644;28;20029;-59
2023/03/12 10:44:07;;;;;;;4.72;3.95;;;;;;;7.15;100.00;99954.03;5054202;28;20048;-61
2023/03/12 10:46:35;;;;;;;5.28;3.70;;;;;;;7.31;100.00;99949.66;5054420;28;20040;-59
2023/03/12 10:49:31;;;;;;;4.07;3.30;;;;;;;7.50;100.00;99953.03;5054490;28;20469;-62
2023/03/12 10:52:01;;;;;;;5.75;3.55;;;;;;;7.57;100.00;99940.81;5054182;28;20033;-59
2023/03/12 10:54:29;;;;;;;4.57;3.10;;;;;;;7.62;100.00;99943.78;5054120;28;20037;-63
2023/03/12 10:56:54;;;;;;;8.02;3.70;;;;;;;7.59;100.00;99942.28;5054310;28;20045;-61
2023/03/12 10:59:24;;;;;;;4.60;2.90;;;;;;;7.67;100.00;99938.00;5054489;28;20048;-60
2023/03/12 11:01:51;;;;;;;6.43;3.60;;;;;;;7.74;100.00;99936.34;5054076;28;20029;-62
2023/03/12 11:04:31;;;;;;;4.22;3.80;;;;;;;7.81;100.00;99937.38;5054007;28;20508;-61
2023/03/12 11:07:26;;;;;;;5.32;3.60;;;;;;;7.99;100.00;99930.09;5054052;28;20040;-60
2023/03/12 11:10:06;;;;;;;7.72;4.43;;;;;;;8.29;100.00;99927.81;5037358;28;20541;-62
2023/03/12 11:12:35;;;;;;;6.93;3.63;;;;;;;8.33;100.00;99927.28;5053650;28;20033;-59
2023/03/12 11:15:37;;;;;;;4.70;3.30;;;;;;;8.73;100.00;99930.09;5054018;28;20037;-60
2023/03/12 11:18:27;;;;;;;6.38;3.90;;;;;;;9.25;100.00;99923.31;5040343;28;20057;-57
2023/03/12 11:20:55;;;;;;;6.47;3.60;;;;;;;10.14;100.00;99915.81;5053690;28;20037;-58
2023/03/12 11:23:28;;;;;;;7.40;4.13;;;;;;;10.97;100.00;99914.06;5053532;28;20468;-60
2023/03/12 11:26:15;;;;;;;5.57;2.80;;;;;;;11.31;96.63;99919.66;5053677;28;20102;-63
2023/03/12 11:28:44;;;;;;;4.93;3.25;;;;;;;11.44;96.41;99918.16;5053842;28;20035;-62
2023/03/12 11:31:44;;;;;;;5.18;3.50;;;;;;;11.97;98.49;99914.28;5053610;28;20045;-51
2023/03/12 11:34:21;;;;;;;5.63;3.17;;;;;;;13.07;92.91;99911.00;5038896;28;20049;-52
2023/03/12 11:36:51;;;;;;;7.07;2.97;;;;;;;14.09;89.02;99919.03;5053504;28;20044;-63
2023/03/12 11:39:24;;;;;;;6.60;2.88;;;;;;;14.96;85.74;99922.53;5053625;28;20033;-63
2023/03/12 11:42:05;;;;;;;6.60;2.58;;;;;;;15.53;74.12;99918.22;5054203;28;20071;-61
2023/03/12 11:45:05;;;;;;;6.55;2.30;;;;;;;16.32;68.94;99903.50;5053303;28;20478;-61
2023/03/12 11:47:39;;;;;;;6.95;3.42;;;;;;;16.49;69.91;99917.22;5027423;28;20045;-61
2023/03/12 11:50:17;;;;;;;5.60;3.30;;;;;;;16.44;66.45;99903.63;5053291;28;20068;-62
2023/03/12 11:52:45;;;;;;;6.70;2.92;;;;;;;16.02;71.13;99896.06;5053050;28;20091;-60
2023/03/12 11:55:35;;;;;;;5.63;3.00;;;;;;;15.67;70.81;99908.28;5053075;28;20536;-60
2023/03/12 11:58:30;;;;;;;9.27;3.65;;;;;;;14.71;74.24;99913.50;5053123;28;20033;-62
2023/03/12 12:01:09;;;;;;;5.07;2.80;;;;;;;14.17;77.71;99909.97;5053170;28;20143;-62
2023/03/12 12:04:13;;;;;;;8.05;3.50;;;;;;;13.96;79.64;99904.78;5053026;28;20039;-61
2023/03/12 12:06:53;;;;;;;6.57;3.65;;;;;;;13.70;81.29;99903.72;4986404;28;20049;-65
2023/03/12 12:09:47;;;;;;;5.53;3.40;;;;;;;13.82;82.07;99906.59;5053023;28;20033;-64
2023/03/12 12:12:31;;;;;;;8.82;3.60;;;;;;;13.55;82.78;99911.88;5052541;28;20033;-62
2023/03/12 12:15:11;;;;;;;9.18;3.38;;;;;;;13.37;84.21;99900.91;5052864;28;20033;-62
2023/03/12 12:17:39;;;;;;;3.95;2.58;;;;;;;13.48;84.01;99902.16;5052882;28;20028;-62
2023/03/12 12:20:28;;;;;;;8.90;3.10;;;;;;;13.50;85.58;99870.72;5052581;28;20041;-64
2023/03/12 12:23:28;;;;;;;5.68;2.50;;;;;;;13.53;85.15;99884.50;5052380;28;20546;-63
2023/03/12 12:26:11;;;;;;;4.28;2.55;;;;;;;13.58;85.23;99883.91;4975687;28;20154;-63
2023/03/12 12:28:48;;;;;;;3.90;2.45;;;;;;;13.65;86.10;99887.41;5058451;28;20512;-61
2023/03/12 12:31:25;;;;;;;6.07;2.35;;;;;;;13.53;85.50;99905.09;5062641;28;20054;-64
2023/03/12 12:34:10;;;;;;;7.35;3.08;;;;;;;13.68;85.20;99888.84;5060521;28;20367;-62
2023/03/12 12:36:36;;;;;;;6.97;2.45;;;;;;;13.58;86.21;99892.75;5072363;28;20040;-60
2023/03/12 12:39:10;;;;;;;6.47;3.05;;;;;;;13.48;85.23;99904.84;5072159;28;20048;-62
2023/03/12 12:41:40;;;;;;;4.32;2.65;;;;;;;13.06;86.40;99896.00;5054514;28;20488;-63
2023/03/12 12:44:15;;;;;;;7.38;2.55;;;;;;;13.04;87.37;99896.22;5071207;28;20519;-66
2023/03/12 12:46:47;;;;;;;8.35;2.28;;;;;;;13.37;86.91;99892.06;5054468;28;20083;-64
2023/03/12 12:49:29;;;;;;;6.57;2.10;;;;;;;13.68;88.17;99881.66;5072337;28;20500;-62
2023/03/12 12:52:00;;;;;;;5.40;1.95;;;;;;;14.23;84.62;99878.84;5054288;28;20460;-62
2023/03/12 12:54:58;;;;;;;6.57;2.17;;;;;;;15.21;76.05;99877.06;5053507;28;20039;-62
2023/03/12 12:57:35;;;;;;;6.70;2.58;;;;;;;15.46;72.89;99886.03;5052087;28;20052;-61
2023/03/12 13:00:23;;;;;;;3.83;2.30;;;;;;;15.54;72.71;99892.22;5052020;28;20045;-61
2023/03/12 13:02:50;;;;;;;8.75;1.98;;;;;;;14.81;74.21;99881.72;5051247;28;20699;-61
2023/03/12 13:05:27;;;;;;;2.53;1.70;;;;;;;14.60;74.63;99882.78;5034161;28;20124;-61
2023/03/12 13:07:54;;;;;;;6.85;1.70;;;;;;;14.13;78.29;99888.09;5052038;28;20440;-62
2023/03/12 13:10:31;;;;;;;3.67;1.85;;;;;;;13.63;76.75;99883.28;5051485;28;20066;-62
2023/03/12 13:12:57;;;;;;;3.92;1.35;;;;;;;13.17;78.77;99873.19;5051103;28;20037;-62
2023/03/12 13:15:29;;;;;;;5.10;1.60;;;;;;;12.86;81.20;99879.03;5051607;28;20094;-62
2023/03/12 13:17:57;;;;;;;3.08;1.85;;;;;;;12.68;82.43;99868.84;5051726;28;20051;-63
2023/03/12 13:20:47;;;;;;;9.18;1.95;;;;;;;12.42;83.26;99877.50;5051533;28;20028;-65
2023/03/12 13:23:37;;;;;;;4.38;1.45;;;;;;;12.51;83.98;99876.31;5051083;28;20112;-61
2023/03/12 13:26:13;;;;;;;5.55;1.45;;;;;;;12.82;84.52;99875.91;5051325;28;20056;-64
2023/03/12 13:28:50;;;;;;;6.53;1.60;;;;;;;12.97;84.52;99871.25;5051689;28;20390;-62
2023/03/12 13:31:22;;;;;;;6.40;1.80;;;;;;;13.23;83.59;99880.47;5051506;28;20036;-61
2023/03/12 13:33:49;;;;;;;4.75;1.42;;;;;;;13.63;81.43;99861.88;5050884;28;20037;-63
2023/03/12 13:36:15;;;;;;;3.35;1.85;;;;;;;13.98;81.33;99870.59;5033664;28;20128;-63
2023/03/12 13:39:00;;;;;;;4.68;1.75;;;;;;;14.10;78.00;99853.72;5051790;28;20119;-63
2023/03/12 13:41:48;;;;;;;4.15;1.90;;;;;;;14.08;77.11;99837.03;5051347;28;20041;-61
2023/03/12 13:44:26;;;;;;;5.00;1.60;;;;;;;13.99;76.50;99840.09;5038543;28;20043;-61
2023/03/12 13:47:10;;;;;;;3.53;1.35;;;;;;;13.87;78.39;99833.72;5055708;28;20098;-63
2023/03/12 13:49:50;;;;;;;5.40;1.52;;;;;;;13.92;78.29;99831.25;5055528;28;20452;-65
2023/03/12 13:52:29;;;;;;;2.65;1.10;;;;;;;14.42;77.39;99842.38;5054919;28;20037;-65
2023/03/12 13:55:21;;;;;;;2.47;1.20;;;;;;;15.01;71.74;99838.78;5055725;28;20482;-61
2023/03/12 13:57:55;;;;;;;4.85;1.20;;;;;;;15.83;69.80;99827.19;5044576;28;20063;-64
2023/03/12 14:00:27;;;;;;;7.82;1.55;;;;;;;16.10;64.92;99829.69;5055260;28;20037;-63
2023/03/12 14:03:09;;;;;;;5.75;2.22;;;;;;;15.84;61.03;99823.47;5054484;28;20425;-63
2023/03/12 14:05:50;;;;;;;4.55;1.42;;;;;;;15.79;61.53;99836.75;5055218;28;20387;-61
2023/03/12 14:08:42;;;;;;;2.55;1.23;;;;;;;15.42;62.26;99831.13;5055286;28;20044;-61
2023/03/12 14:11:29;;;;;;;5.53;2.17;;;;;;;15.25;64.31;99839.88;5054897;28;20108;-60
2023/03/12 14:14:32;;;;;;;4.20;1.75;;;;;;;15.34;64.81;99830.56;5054337;28;20493;-61
2023/03/12 14:17:01;;;;;;;6.90;1.75;;;;;;;15.17;64.31;99838.28;5054873;28;20506;-61
2023/03/12 14:19:33;;;;;;;7.50;1.42;;;;;;;15.25;63.53;99840.72;5055268;28;20113;-62
2023/03/12 14:22:03;;;;;;;1.20;0.80;;;;;;;15.10;64.67;99843.66;5054751;28;20037;-63
2023/03/12 14:24:35;;;;;;;5.10;1.92;;;;;;;15.07;63.38;99837.91;5054455;28;20395;-61
2023/03/12 14:27:04;;;;;;;4.97;1.23;;;;;;;15.14;62.25;99836.03;5054628;28;20375;-62
2023/03/12 14:29:36;;;;;;;5.10;1.30;;;;;;;15.00;62.22;99845.16;5054759;28;20062;-61
2023/03/12 14:32:14;;;;;;;6.80;1.60;;;;;;;14.62;63.33;99843.19;5054535;28;20057;-61
2023/03/12 14:34:45;;;;;;;4.40;1.42;;;;;;;14.51;61.94;99833.94;5053013;28;20033;-63
2023/03/12 14:37:21;;;;;;;4.45;1.30;;;;;;;14.32;62.77;99842.78;5053878;28;20127;-64
2023/03/12 14:39:54;;;;;;;3.78;1.45;;;;;;;14.16;62.75;99845.91;5053829;28;20048;-64
2023/03/12 14:42:27;;;;;;;3.00;1.42;;;;;;;14.06;63.24;99849.78;5054290;28;20108;-64
2023/03/12 14:45:00;;;;;;;4.90;1.42;;;;;;;13.83;64.14;99844.84;5054678;28;20041;-64
2023/03/12 14:47:25;;;;;;;4.95;1.45;;;;;;;13.66;65.46;99840.88;5054458;28;20417;-61
2023/03/12 14:49:53;;;;;;;3.50;1.33;;;;;;;13.68;65.40;99846.84;5054564;28;20044;-63
2023/03/12 14:52:28;;;;;;;5.10;1.20;;;;;;;13.65;65.27;99843.78;5054082;28;20037;-65
2023/03/12 14:55:17;;;;;;;3.83;1.52;;;;;;;13.55;68.05;99849.50;5054185;28;20374;-54
2023/03/12 14:57:43;;;;;;;5.80;1.55;;;;;;;13.41;67.61;99848.66;5054549;28;20426;-50
2023/03/12 15:00:23;;;;;;;6.85;1.25;;;;;;;13.36;68.06;99850.25;5054324;28;20121;-50
2023/03/12 15:02:52;;;;;;;4.40;1.38;;;;;;;13.39;67.84;99849.88;5054017;28;20474;-61
2023/03/12 15:05:19;;;;;;;6.97;1.45;;;;;;;13.34;67.14;99844.31;5054070;28;20498;-62
2023/03/12 15:07:45;;;;;;;11.65;1.40;;;;;;;13.39;67.34;99847.22;5054278;28;20569;-61
2023/03/12 15:10:17;;;;;;;5.65;1.58;;;;;;;13.35;67.72;99841.41;5054319;28;20062;-61
2023/03/12 15:12:44;;;;;;;7.85;1.60;;;;;;;13.37;67.06;99835.88;5053641;28;20040;-62
2023/03/12 15:15:27;;;;;;;4.10;1.42;;;;;;;13.37;66.37;99833.22;5053921;28;20037;-63
2023/03/12 15:17:53;;;;;;;3.22;1.23;;;;;;;13.42;67.09;99828.06;5035629;28;20067;-63
2023/03/12 15:20:20;;;;;;;6.53;2.58;;;;;;;13.47;66.68;99826.44;5053743;28;20048;-62
2023/03/12 15:22:47;;;;;;;6.32;2.10;;;;;;;13.52;67.54;99817.81;5053686;28;20033;-61
2023/03/12 15:25:25;;;;;;;4.15;1.30;;;;;;;13.54;65.21;99810.41;5053679;28;20037;-62
2023/03/12 15:28:05;;;;;;;1.73;1.02;;;;;;;13.46;65.42;99815.94;5053695;28;20063;-58
2023/03/12 15:30:31;;;;;;;2.58;1.33;;;;;;;13.44;66.01;99815.31;5053582;28;20132;-61
2023/03/12 15:33:15;;;;;;;1.27;0.70;;;;;;;13.40;65.41;99817.56;5053430;28;20084;-59
2023/03/12 15:35:59;;;;;;;4.07;1.13;;;;;;;13.45;65.18;99811.63;5053626;28;20095;-61
2023/03/12 15:38:24;;;;;;;3.58;1.30;;;;;;;13.39;65.75;99810.56;5053522;28;20045;-62
2023/03/12 15:40:54;;;;;;;2.47;1.02;;;;;;;13.30;66.07;99809.94;5053673;28;20493;-63
2023/03/12 15:43:22;;;;;;;3.78;1.42;;;;;;;13.30;65.56;99823.31;5053208;28;20514;-62
2023/03/12 15:45:57;;;;;;;5.40;1.27;;;;;;;13.22;66.22;99810.09;5053337;28;20041;-61
2023/03/12 15:48:29;;;;;;;3.47;1.20;;;;;;;13.15;65.90;99805.72;5053422;28;20090;-63
2023/03/12 15:50:55;;;;;;;2.90;1.25;;;;;;;13.04;67.81;99821.34;5053265;28;20044;-63
2023/03/12 15:53:21;;;;;;;5.18;1.48;;;;;;;13.09;67.06;99811.88;5018676;28;20033;-61
2023/03/12 15:56:06;;;;;;;6.35;1.35;;;;;;;13.08;65.57;99820.94;5053216;28;20055;-61
2023/03/12 15:58:38;;;;;;;3.72;0.85;;;;;;;13.07;66.12;99814.75;5053242;28;20398;-60
2023/03/12 16:01:15;;;;;;;7.70;1.45;;;;;;;13.05;66.46;99816.81;5053132;28;20033;-60
2023/03/12 16:03:44;;;;;;;5.97;1.55;;;;;;;12.99;65.98;99823.78;5052940;28;20025;-61
2023/03/12 16:06:28;;;;;;;7.45;1.55;;;;;;;12.90;65.77;99819.59;5052401;28;20443;-60
2023/03/12 16:08:56;;;;;;;4.80;1.80;;;;;;;12.92;66.58;99814.91;5052943;28;20041;-60
2023/03/12 16:11:26;;;;;;;;;;;;;;;12.87;67.20;99822.69;5053251;28;20475;-60
2023/03/12 16:14:09;;;;;;;4.53;1.35;;;;;;;12.84;66.93;99815.06;5052560;28;20353;-60
2023/03/12 16:16:34;;;;;;;7.50;1.60;;;;;;;12.91;66.64;99815.09;5052743;28;20486;-61
2023/03/12 16:18:59;;;;;;;4.60;1.33;;;;;;;12.87;66.94;99811.19;5052775;28;20045;-62
2023/03/12 16:21:25;;;;;;;5.15;1.73;;;;;;;12.81;65.98;99817.31;5053727;28;20040;-60
2023/03/12 16:23:50;;;;;;;7.15;1.52;;;;;;;12.74;66.28;99802.06;5052399;28;20047;-59
2023/03/12 16:26:16;;;;;;;5.45;1.52;;;;;;;12.83;66.81;99810.72;5052431;28;20048;-61
2023/03/12 16:28:42;;;;;;;3.85;1.17;;;;;;;12.82;65.78;99798.41;5052595;28;20492;-62
2023/03/12 16:31:13;;;;;;;3.40;1.05;;;;;;;12.76;65.51;99796.50;5052331;28;20041;-63
2023/03/12 16:33:39;;;;;;;5.03;1.00;;;;;;;12.73;66.21;99803.09;5052148;28;20040;-60
2023/03/12 16:36:12;;;;;;;3.92;1.02;;;;;;;12.69;67.66;99814.38;5052329;28;20413;-61
2023/03/12 16:38:38;;;;;;;4.72;1.38;;;;;;;12.64;66.86;99806.09;5052291;28;20044;-63
2023/03/12 16:41:03;;;;;;;6.43;1.88;;;;;;;12.60;67.49;99811.03;5034512;28;20079;-60
2023/03/12 16:43:32;;;;;;;3.30;1.10;;;;;;;12.60;67.25;99807.53;5034210;28;20068;-60
2023/03/12 16:45:58;;;;;;;4.88;1.13;;;;;;;12.54;67.73;99798.47;5052161;28;20094;-57
2023/03/12 16:48:23;;;;;;;3.83;1.45;;;;;;;12.58;67.15;99797.03;5052162;28;20037;-55
2023/03/12 16:50:52;;;;;;;2.30;0.93;;;;;;;12.55;68.78;99797.44;5052277;28;20118;-60
2023/03/12 16:53:18;;;;;;;5.90;1.48;;;;;;;12.50;67.51;99791.84;5051826;28;20478;-52
2023/03/12 16:55:58;;;;;;;4.65;1.98;;;;;;;12.55;67.64;99800.09;5052220;28;20103;-61
2023/03/12 16:58:25;;;;;;;4.60;1.50;;;;;;;12.48;67.72;99802.75;5052304;28;20100;-62
2023/03/12 17:00:52;;;;;;;7.03;2.17;;;;;;;12.45;68.38;99804.97;5052078;28;20544;-62
2023/03/12 17:03:20;;;;;;;4.03;1.75;;;;;;;12.40;69.29;99796.75;5052119;28;20075;-63
2023/03/12 17:05:45;;;;;;;;;;;;;;;12.41;69.69;99801.06;5054438;28;20136;-63
2023/03/12 17:08:10;;;;;;;3.67;1.27;;;;;;;12.29;69.25;99807.97;5053110;28;20382;-62
2023/03/12 17:10:36;;;;;;;3.15;1.42;;;;;;;12.35;69.66;99820.53;5051866;28;20037;-60
2023/03/12 17:13:01;;;;;;;3.55;1.00;;;;;;;12.26;70.12;99808.31;5051737;28;20394;-60
2023/03/12 17:15:32;;;;;;;4.38;1.40;;;;;;;12.27;70.46;99816.16;5051803;28;20041;-63
2023/03/12 17:18:02;;;;;;;5.90;1.70;;;;;;;12.23;70.37;99823.72;5051834;28;20037;-61